sensor_id;sensor_type;location;lat;lon;timestamp;P1;durP1;ratioP1;P2;durP2;ratioP2
23302;SDS011;11820;48.738;9.092;2023-12-20T00:00:51;1.33;;;1.10;;
23302;SDS011;11820;48.738;9.092;2023-12-20T00:03:16;1.27;;;1.17;;
23302;SDS011;11820;48.738;9.092;2023-12-20T00:05:42;1.30;;;1.20;;
23302;SDS011;11820;48.738;9.092;2023-12-20T00:08:07;1.40;;;1.30;;
23302;SDS011;11820;48.738;9.092;2023-12-20T00:10:32;1.50;;;1.10;;
23302;SDS011;11820;48.738;9.092;2023-12-20T00:12:58;1.63;;;1.00;;
23302;SDS011;11820;48.738;9.092;2023-12-20T00:15:23;1.30;;;0.97;;
23302;SDS011;11820;48.738;9.092;2023-12-20T00:17:48;2.00;;;1.30;;
23302;SDS011;11820;48.738;9.092;2023-12-20T00:20:13;1.27;;;1.03;;
23302;SDS011;11820;48.738;9.092;2023-12-20T00:22:39;1.57;;;0.90;;
23302;SDS011;11820;48.738;9.092;2023-12-20T00:25:04;2.33;;;1.30;;
23302;SDS011;11820;48.738;9.092;2023-12-20T00:27:30;1.03;;;0.97;;
23302;SDS011;11820;48.738;9.092;2023-12-20T00:29:55;1.07;;;1.00;;
23302;SDS011;11820;48.738;9.092;2023-12-20T00:32:20;1.30;;;1.20;;
23302;SDS011;11820;48.738;9.092;2023-12-20T00:34:45;1.37;;;1.03;;
23302;SDS011;11820;48.738;9.092;2023-12-20T00:37:11;2.87;;;1.30;;
23302;SDS011;11820;48.738;9.092;2023-12-20T00:39:36;1.50;;;1.13;;
23302;SDS011;11820;48.738;9.092;2023-12-20T00:42:01;1.47;;;1.20;;
23302;SDS011;11820;48.738;9.092;2023-12-20T00:44:27;1.30;;;1.10;;
23302;SDS011;11820;48.738;9.092;2023-12-20T00:46:52;1.00;;;0.90;;
23302;SDS011;11820;48.738;9.092;2023-12-20T00:49:17;1.90;;;0.93;;
23302;SDS011;11820;48.738;9.092;2023-12-20T00:51:42;1.20;;;1.10;;
23302;SDS011;11820;48.738;9.092;2023-12-20T00:54:08;1.53;;;1.20;;
23302;SDS011;11820;48.738;9.092;2023-12-20T00:56:34;1.93;;;0.97;;
23302;SDS011;11820;48.738;9.092;2023-12-20T00:58:59;0.93;;;0.80;;
23302;SDS011;11820;48.738;9.092;2023-12-20T01:01:25;2.60;;;1.23;;
23302;SDS011;11820;48.738;9.092;2023-12-20T01:03:50;1.67;;;1.10;;
23302;SDS011;11820;48.738;9.092;2023-12-20T01:06:16;1.03;;;0.90;;
23302;SDS011;11820;48.738;9.092;2023-12-20T01:08:41;1.27;;;1.17;;
23302;SDS011;11820;48.738;9.092;2023-12-20T01:11:07;0.80;;;0.80;;
23302;SDS011;11820;48.738;9.092;2023-12-20T01:13:32;1.33;;;1.00;;
23302;SDS011;11820;48.738;9.092;2023-12-20T01:15:57;1.10;;;1.00;;
23302;SDS011;11820;48.738;9.092;2023-12-20T01:18:23;3.93;;;1.40;;
23302;SDS011;11820;48.738;9.092;2023-12-20T01:20:48;1.47;;;1.20;;
23302;SDS011;11820;48.738;9.092;2023-12-20T01:23:13;1.93;;;1.10;;
23302;SDS011;11820;48.738;9.092;2023-12-20T01:25:39;3.80;;;1.00;;
23302;SDS011;11820;48.738;9.092;2023-12-20T01:28:04;4.00;;;1.17;;
23302;SDS011;11820;48.738;9.092;2023-12-20T01:30:29;3.77;;;1.20;;
23302;SDS011;11820;48.738;9.092;2023-12-20T01:32:55;1.70;;;1.10;;
23302;SDS011;11820;48.738;9.092;2023-12-20T01:35:20;2.70;;;1.30;;
23302;SDS011;11820;48.738;9.092;2023-12-20T01:37:45;2.90;;;1.13;;
23302;SDS011;11820;48.738;9.092;2023-12-20T01:40:10;2.97;;;0.90;;
23302;SDS011;11820;48.738;9.092;2023-12-20T01:42:36;2.10;;;1.20;;
23302;SDS011;11820;48.738;9.092;2023-12-20T01:45:01;1.10;;;1.00;;
23302;SDS011;11820;48.738;9.092;2023-12-20T01:47:27;2.23;;;1.13;;
23302;SDS011;11820;48.738;9.092;2023-12-20T01:49:53;2.50;;;1.10;;
23302;SDS011;11820;48.738;9.092;2023-12-20T01:52:19;1.63;;;1.30;;
23302;SDS011;11820;48.738;9.092;2023-12-20T01:54:45;1.80;;;1.00;;
23302;SDS011;11820;48.738;9.092;2023-12-20T01:57:12;1.20;;;1.10;;
23302;SDS011;11820;48.738;9.092;2023-12-20T01:59:39;1.17;;;1.07;;
23302;SDS011;11820;48.738;9.092;2023-12-20T02:02:05;1.00;;;0.90;;
23302;SDS011;11820;48.738;9.092;2023-12-20T02:04:31;1.00;;;0.90;;
23302;SDS011;11820;48.738;9.092;2023-12-20T02:06:57;1.17;;;0.80;;
23302;SDS011;11820;48.738;9.092;2023-12-20T02:09:23;1.20;;;1.07;;
23302;SDS011;11820;48.738;9.092;2023-12-20T02:11:49;1.00;;;0.70;;
23302;SDS011;11820;48.738;9.092;2023-12-20T02:14:14;1.43;;;1.20;;
23302;SDS011;11820;48.738;9.092;2023-12-20T02:16:39;1.37;;;0.93;;
23302;SDS011;11820;48.738;9.092;2023-12-20T02:19:05;1.60;;;1.00;;
23302;SDS011;11820;48.738;9.092;2023-12-20T02:21:39;2.07;;;1.00;;
23302;SDS011;11820;48.738;9.092;2023-12-20T02:24:05;0.77;;;0.77;;
23302;SDS011;11820;48.738;9.092;2023-12-20T02:26:31;2.07;;;0.70;;
23302;SDS011;11820;48.738;9.092;2023-12-20T02:28:58;1.33;;;0.57;;
23302;SDS011;11820;48.738;9.092;2023-12-20T02:31:23;0.70;;;0.60;;
23302;SDS011;11820;48.738;9.092;2023-12-20T02:33:49;0.87;;;0.70;;
23302;SDS011;11820;48.738;9.092;2023-12-20T02:36:14;1.03;;;0.70;;
23302;SDS011;11820;48.738;9.092;2023-12-20T02:38:40;1.13;;;0.50;;
23302;SDS011;11820;48.738;9.092;2023-12-20T02:41:05;0.70;;;0.67;;
23302;SDS011;11820;48.738;9.092;2023-12-20T02:43:30;0.90;;;0.70;;
23302;SDS011;11820;48.738;9.092;2023-12-20T02:45:55;0.90;;;0.67;;
23302;SDS011;11820;48.738;9.092;2023-12-20T02:48:21;0.40;;;0.40;;
23302;SDS011;11820;48.738;9.092;2023-12-20T02:50:46;0.60;;;0.60;;
23302;SDS011;11820;48.738;9.092;2023-12-20T02:53:12;0.40;;;0.40;;
23302;SDS011;11820;48.738;9.092;2023-12-20T02:55:38;0.53;;;0.53;;
23302;SDS011;11820;48.738;9.092;2023-12-20T02:58:03;0.80;;;0.60;;
23302;SDS011;11820;48.738;9.092;2023-12-20T03:00:28;0.60;;;0.60;;
23302;SDS011;11820;48.738;9.092;2023-12-20T03:02:54;0.60;;;0.60;;
23302;SDS011;11820;48.738;9.092;2023-12-20T03:05:19;0.53;;;0.50;;
23302;SDS011;11820;48.738;9.092;2023-12-20T03:07:45;1.00;;;0.50;;
23302;SDS011;11820;48.738;9.092;2023-12-20T03:10:11;0.40;;;0.40;;
23302;SDS011;11820;48.738;9.092;2023-12-20T03:12:36;1.77;;;0.50;;
23302;SDS011;11820;48.738;9.092;2023-12-20T03:15:02;0.83;;;0.40;;
23302;SDS011;11820;48.738;9.092;2023-12-20T03:17:27;0.67;;;0.50;;
23302;SDS011;11820;48.738;9.092;2023-12-20T03:19:52;0.40;;;0.40;;
23302;SDS011;11820;48.738;9.092;2023-12-20T03:22:18;1.63;;;0.40;;
23302;SDS011;11820;48.738;9.092;2023-12-20T03:24:43;1.90;;;0.60;;
23302;SDS011;11820;48.738;9.092;2023-12-20T03:27:08;0.40;;;0.40;;
23302;SDS011;11820;48.738;9.092;2023-12-20T03:29:33;0.30;;;0.30;;
23302;SDS011;11820;48.738;9.092;2023-12-20T03:31:59;0.40;;;0.40;;
23302;SDS011;11820;48.738;9.092;2023-12-20T03:34:24;0.50;;;0.40;;
23302;SDS011;11820;48.738;9.092;2023-12-20T03:36:49;0.87;;;0.40;;
23302;SDS011;11820;48.738;9.092;2023-12-20T03:39:15;0.30;;;0.30;;
23302;SDS011;11820;48.738;9.092;2023-12-20T03:41:40;0.30;;;0.30;;
23302;SDS011;11820;48.738;9.092;2023-12-20T03:44:05;0.50;;;0.50;;
23302;SDS011;11820;48.738;9.092;2023-12-20T03:46:30;0.40;;;0.30;;
23302;SDS011;11820;48.738;9.092;2023-12-20T03:48:56;0.40;;;0.40;;
23302;SDS011;11820;48.738;9.092;2023-12-20T03:51:22;0.80;;;0.30;;
23302;SDS011;11820;48.738;9.092;2023-12-20T03:53:47;0.30;;;0.20;;
23302;SDS011;11820;48.738;9.092;2023-12-20T03:56:12;0.30;;;0.30;;
23302;SDS011;11820;48.738;9.092;2023-12-20T03:58:38;1.40;;;0.30;;
23302;SDS011;11820;48.738;9.092;2023-12-20T04:01:03;1.30;;;0.20;;
23302;SDS011;11820;48.738;9.092;2023-12-20T04:03:35;0.20;;;0.20;;
23302;SDS011;11820;48.738;9.092;2023-12-20T04:06:00;0.63;;;0.30;;
23302;SDS011;11820;48.738;9.092;2023-12-20T04:08:25;0.40;;;0.40;;
23302;SDS011;11820;48.738;9.092;2023-12-20T04:10:50;0.20;;;0.20;;
23302;SDS011;11820;48.738;9.092;2023-12-20T04:13:16;0.23;;;0.23;;
23302;SDS011;11820;48.738;9.092;2023-12-20T04:15:41;0.40;;;0.30;;
23302;SDS011;11820;48.738;9.092;2023-12-20T04:18:06;0.80;;;0.20;;
23302;SDS011;11820;48.738;9.092;2023-12-20T04:20:32;0.33;;;0.20;;
23302;SDS011;11820;48.738;9.092;2023-12-20T04:22:57;0.43;;;0.30;;
23302;SDS011;11820;48.738;9.092;2023-12-20T04:25:22;0.30;;;0.30;;
23302;SDS011;11820;48.738;9.092;2023-12-20T04:27:47;1.13;;;0.27;;
23302;SDS011;11820;48.738;9.092;2023-12-20T04:30:13;0.23;;;0.23;;
23302;SDS011;11820;48.738;9.092;2023-12-20T04:32:38;0.30;;;0.30;;
23302;SDS011;11820;48.738;9.092;2023-12-20T04:35:03;0.30;;;0.30;;
23302;SDS011;11820;48.738;9.092;2023-12-20T04:37:29;0.20;;;0.20;;
23302;SDS011;11820;48.738;9.092;2023-12-20T04:39:54;0.40;;;0.37;;
23302;SDS011;11820;48.738;9.092;2023-12-20T04:42:20;0.30;;;0.30;;
23302;SDS011;11820;48.738;9.092;2023-12-20T04:44:45;0.30;;;0.30;;
23302;SDS011;11820;48.738;9.092;2023-12-20T04:47:10;0.97;;;0.30;;
23302;SDS011;11820;48.738;9.092;2023-12-20T04:49:36;0.30;;;0.30;;
23302;SDS011;11820;48.738;9.092;2023-12-20T04:52:01;0.27;;;0.27;;
23302;SDS011;11820;48.738;9.092;2023-12-20T04:54:26;0.20;;;0.20;;
23302;SDS011;11820;48.738;9.092;2023-12-20T04:56:51;1.30;;;0.40;;
23302;SDS011;11820;48.738;9.092;2023-12-20T04:59:17;0.30;;;0.30;;
23302;SDS011;11820;48.738;9.092;2023-12-20T05:01:42;0.20;;;0.20;;
23302;SDS011;11820;48.738;9.092;2023-12-20T05:04:07;0.67;;;0.33;;
23302;SDS011;11820;48.738;9.092;2023-12-20T05:06:33;0.30;;;0.30;;
23302;SDS011;11820;48.738;9.092;2023-12-20T05:08:58;1.17;;;0.33;;
23302;SDS011;11820;48.738;9.092;2023-12-20T05:11:23;0.50;;;0.30;;
23302;SDS011;11820;48.738;9.092;2023-12-20T05:13:48;0.30;;;0.30;;
23302;SDS011;11820;48.738;9.092;2023-12-20T05:16:14;0.73;;;0.40;;
23302;SDS011;11820;48.738;9.092;2023-12-20T05:18:39;0.20;;;0.20;;
23302;SDS011;11820;48.738;9.092;2023-12-20T05:21:05;1.17;;;0.67;;
23302;SDS011;11820;48.738;9.092;2023-12-20T05:23:30;0.43;;;0.40;;
23302;SDS011;11820;48.738;9.092;2023-12-20T05:25:55;1.40;;;0.40;;
23302;SDS011;11820;48.738;9.092;2023-12-20T05:28:21;0.87;;;0.40;;
23302;SDS011;11820;48.738;9.092;2023-12-20T05:30:46;0.30;;;0.30;;
23302;SDS011;11820;48.738;9.092;2023-12-20T05:33:11;0.77;;;0.40;;
23302;SDS011;11820;48.738;9.092;2023-12-20T05:35:37;2.20;;;1.03;;
23302;SDS011;11820;48.738;9.092;2023-12-20T05:38:02;0.30;;;0.30;;
23302;SDS011;11820;48.738;9.092;2023-12-20T05:40:27;0.70;;;0.50;;
23302;SDS011;11820;48.738;9.092;2023-12-20T05:42:53;0.60;;;0.50;;
23302;SDS011;11820;48.738;9.092;2023-12-20T05:45:19;0.40;;;0.40;;
23302;SDS011;11820;48.738;9.092;2023-12-20T05:47:44;0.93;;;0.40;;
23302;SDS011;11820;48.738;9.092;2023-12-20T05:50:09;0.40;;;0.40;;
23302;SDS011;11820;48.738;9.092;2023-12-20T05:52:35;0.50;;;0.50;;
23302;SDS011;11820;48.738;9.092;2023-12-20T05:55:00;0.53;;;0.40;;
23302;SDS011;11820;48.738;9.092;2023-12-20T05:57:28;0.67;;;0.50;;
23302;SDS011;11820;48.738;9.092;2023-12-20T05:59:53;0.30;;;0.30;;
23302;SDS011;11820;48.738;9.092;2023-12-20T06:02:19;0.97;;;0.63;;
23302;SDS011;11820;48.738;9.092;2023-12-20T06:04:44;1.93;;;0.60;;
23302;SDS011;11820;48.738;9.092;2023-12-20T06:07:13;0.50;;;0.50;;
23302;SDS011;11820;48.738;9.092;2023-12-20T06:09:39;1.10;;;0.50;;
23302;SDS011;11820;48.738;9.092;2023-12-20T06:12:05;0.50;;;0.50;;
23302;SDS011;11820;48.738;9.092;2023-12-20T06:14:30;2.23;;;0.50;;
23302;SDS011;11820;48.738;9.092;2023-12-20T06:16:56;1.50;;;0.90;;
23302;SDS011;11820;48.738;9.092;2023-12-20T06:19:22;0.57;;;0.40;;
23302;SDS011;11820;48.738;9.092;2023-12-20T06:21:47;1.00;;;0.90;;
23302;SDS011;11820;48.738;9.092;2023-12-20T06:24:13;2.27;;;0.67;;
23302;SDS011;11820;48.738;9.092;2023-12-20T06:26:38;1.00;;;0.57;;
23302;SDS011;11820;48.738;9.092;2023-12-20T06:29:04;2.20;;;0.60;;
23302;SDS011;11820;48.738;9.092;2023-12-20T06:31:29;2.27;;;0.80;;
23302;SDS011;11820;48.738;9.092;2023-12-20T06:33:54;0.73;;;0.50;;
23302;SDS011;11820;48.738;9.092;2023-12-20T06:36:22;0.60;;;0.60;;
23302;SDS011;11820;48.738;9.092;2023-12-20T06:38:49;1.50;;;0.60;;
23302;SDS011;11820;48.738;9.092;2023-12-20T06:41:15;0.87;;;0.60;;
23302;SDS011;11820;48.738;9.092;2023-12-20T06:43:40;1.33;;;0.63;;
23302;SDS011;11820;48.738;9.092;2023-12-20T06:46:06;1.20;;;0.70;;
23302;SDS011;11820;48.738;9.092;2023-12-20T06:48:31;1.13;;;0.70;;
23302;SDS011;11820;48.738;9.092;2023-12-20T06:50:56;0.70;;;0.70;;
23302;SDS011;11820;48.738;9.092;2023-12-20T06:53:24;0.90;;;0.60;;
23302;SDS011;11820;48.738;9.092;2023-12-20T06:55:49;1.87;;;0.90;;
23302;SDS011;11820;48.738;9.092;2023-12-20T06:58:15;0.83;;;0.80;;
23302;SDS011;11820;48.738;9.092;2023-12-20T07:00:41;0.97;;;0.63;;
23302;SDS011;11820;48.738;9.092;2023-12-20T07:03:06;1.23;;;0.83;;
23302;SDS011;11820;48.738;9.092;2023-12-20T07:05:32;2.43;;;1.00;;
23302;SDS011;11820;48.738;9.092;2023-12-20T07:07:58;2.80;;;0.90;;
23302;SDS011;11820;48.738;9.092;2023-12-20T07:10:23;1.63;;;0.80;;
23302;SDS011;11820;48.738;9.092;2023-12-20T07:12:48;1.93;;;0.50;;
23302;SDS011;11820;48.738;9.092;2023-12-20T07:15:14;0.97;;;0.60;;
23302;SDS011;11820;48.738;9.092;2023-12-20T07:17:39;2.17;;;0.87;;
23302;SDS011;11820;48.738;9.092;2023-12-20T07:20:05;1.40;;;0.67;;
23302;SDS011;11820;48.738;9.092;2023-12-20T07:22:34;1.07;;;0.80;;
23302;SDS011;11820;48.738;9.092;2023-12-20T07:25:00;0.63;;;0.63;;
23302;SDS011;11820;48.738;9.092;2023-12-20T07:27:26;1.90;;;0.70;;
23302;SDS011;11820;48.738;9.092;2023-12-20T07:29:51;3.87;;;1.10;;
23302;SDS011;11820;48.738;9.092;2023-12-20T07:32:17;1.40;;;1.30;;
23302;SDS011;11820;48.738;9.092;2023-12-20T07:34:42;3.93;;;1.80;;
23302;SDS011;11820;48.738;9.092;2023-12-20T07:37:08;1.87;;;1.50;;
23302;SDS011;11820;48.738;9.092;2023-12-20T07:39:35;2.00;;;1.53;;
23302;SDS011;11820;48.738;9.092;2023-12-20T07:42:01;4.17;;;2.47;;
23302;SDS011;11820;48.738;9.092;2023-12-20T07:44:26;4.03;;;2.13;;
23302;SDS011;11820;48.738;9.092;2023-12-20T07:46:51;2.20;;;2.00;;
23302;SDS011;11820;48.738;9.092;2023-12-20T07:49:17;2.77;;;2.57;;
23302;SDS011;11820;48.738;9.092;2023-12-20T07:51:42;2.50;;;2.27;;
23302;SDS011;11820;48.738;9.092;2023-12-20T07:54:07;2.70;;;2.50;;
23302;SDS011;11820;48.738;9.092;2023-12-20T07:56:33;3.53;;;2.87;;
23302;SDS011;11820;48.738;9.092;2023-12-20T07:58:58;5.63;;;2.60;;
23302;SDS011;11820;48.738;9.092;2023-12-20T08:01:23;6.77;;;2.80;;
23302;SDS011;11820;48.738;9.092;2023-12-20T08:03:49;3.10;;;2.80;;
23302;SDS011;11820;48.738;9.092;2023-12-20T08:06:15;2.80;;;2.60;;
23302;SDS011;11820;48.738;9.092;2023-12-20T08:08:42;3.37;;;3.07;;
23302;SDS011;11820;48.738;9.092;2023-12-20T08:11:07;3.53;;;3.20;;
23302;SDS011;11820;48.738;9.092;2023-12-20T08:13:32;8.47;;;4.03;;
23302;SDS011;11820;48.738;9.092;2023-12-20T08:15:58;8.27;;;3.63;;
23302;SDS011;11820;48.738;9.092;2023-12-20T08:18:23;3.20;;;2.90;;
23302;SDS011;11820;48.738;9.092;2023-12-20T08:20:48;4.30;;;2.93;;
23302;SDS011;11820;48.738;9.092;2023-12-20T08:23:13;3.50;;;3.20;;
23302;SDS011;11820;48.738;9.092;2023-12-20T08:25:40;3.90;;;3.40;;
23302;SDS011;11820;48.738;9.092;2023-12-20T08:28:05;3.53;;;3.07;;
23302;SDS011;11820;48.738;9.092;2023-12-20T08:30:30;3.37;;;3.07;;
23302;SDS011;11820;48.738;9.092;2023-12-20T08:32:59;4.30;;;3.77;;
23302;SDS011;11820;48.738;9.092;2023-12-20T08:35:24;3.87;;;3.20;;
23302;SDS011;11820;48.738;9.092;2023-12-20T08:37:50;4.87;;;3.37;;
23302;SDS011;11820;48.738;9.092;2023-12-20T08:40:15;3.87;;;3.47;;
23302;SDS011;11820;48.738;9.092;2023-12-20T08:42:40;4.13;;;2.93;;
23302;SDS011;11820;48.738;9.092;2023-12-20T08:45:06;3.23;;;3.00;;
23302;SDS011;11820;48.738;9.092;2023-12-20T08:47:31;3.70;;;2.90;;
23302;SDS011;11820;48.738;9.092;2023-12-20T08:49:56;5.10;;;3.47;;
23302;SDS011;11820;48.738;9.092;2023-12-20T08:52:24;4.73;;;3.27;;
23302;SDS011;11820;48.738;9.092;2023-12-20T08:54:50;3.93;;;2.40;;
23302;SDS011;11820;48.738;9.092;2023-12-20T08:57:18;2.83;;;2.20;;
23302;SDS011;11820;48.738;9.092;2023-12-20T08:59:44;4.83;;;2.30;;
23302;SDS011;11820;48.738;9.092;2023-12-20T09:02:09;4.40;;;2.27;;
23302;SDS011;11820;48.738;9.092;2023-12-20T09:04:35;3.00;;;2.17;;
23302;SDS011;11820;48.738;9.092;2023-12-20T09:07:00;2.70;;;1.97;;
23302;SDS011;11820;48.738;9.092;2023-12-20T09:09:26;3.47;;;2.47;;
23302;SDS011;11820;48.738;9.092;2023-12-20T09:11:51;3.67;;;2.10;;
23302;SDS011;11820;48.738;9.092;2023-12-20T09:14:17;4.23;;;2.30;;
23302;SDS011;11820;48.738;9.092;2023-12-20T09:16:42;5.97;;;2.40;;
23302;SDS011;11820;48.738;9.092;2023-12-20T09:19:07;2.43;;;1.90;;
23302;SDS011;11820;48.738;9.092;2023-12-20T09:21:32;4.43;;;1.90;;
23302;SDS011;11820;48.738;9.092;2023-12-20T09:23:58;4.97;;;1.70;;
23302;SDS011;11820;48.738;9.092;2023-12-20T09:26:23;5.00;;;2.00;;
23302;SDS011;11820;48.738;9.092;2023-12-20T09:28:49;3.00;;;1.70;;
23302;SDS011;11820;48.738;9.092;2023-12-20T09:31:14;3.30;;;1.60;;
23302;SDS011;11820;48.738;9.092;2023-12-20T09:33:39;4.00;;;1.50;;
23302;SDS011;11820;48.738;9.092;2023-12-20T09:36:05;1.57;;;1.20;;
23302;SDS011;11820;48.738;9.092;2023-12-20T09:38:30;2.73;;;1.50;;
23302;SDS011;11820;48.738;9.092;2023-12-20T09:40:56;3.80;;;1.57;;
23302;SDS011;11820;48.738;9.092;2023-12-20T09:43:21;2.27;;;1.30;;
23302;SDS011;11820;48.738;9.092;2023-12-20T09:45:49;7.97;;;1.27;;
23302;SDS011;11820;48.738;9.092;2023-12-20T09:48:18;3.17;;;1.10;;
23302;SDS011;11820;48.738;9.092;2023-12-20T09:50:44;2.73;;;0.97;;
23302;SDS011;11820;48.738;9.092;2023-12-20T09:53:11;2.63;;;1.27;;
23302;SDS011;11820;48.738;9.092;2023-12-20T09:55:39;3.57;;;1.20;;
23302;SDS011;11820;48.738;9.092;2023-12-20T09:58:06;6.30;;;1.30;;
23302;SDS011;11820;48.738;9.092;2023-12-20T10:00:33;4.83;;;1.17;;
23302;SDS011;11820;48.738;9.092;2023-12-20T10:03:00;6.30;;;1.60;;
23302;SDS011;11820;48.738;9.092;2023-12-20T10:05:27;4.20;;;1.37;;
23302;SDS011;11820;48.738;9.092;2023-12-20T10:07:53;4.70;;;1.30;;
23302;SDS011;11820;48.738;9.092;2023-12-20T10:10:18;2.30;;;1.07;;
23302;SDS011;11820;48.738;9.092;2023-12-20T10:15:32;3.10;;;1.13;;
23302;SDS011;11820;48.738;9.092;2023-12-20T10:17:58;3.03;;;1.30;;
23302;SDS011;11820;48.738;9.092;2023-12-20T10:20:24;6.77;;;1.53;;
23302;SDS011;11820;48.738;9.092;2023-12-20T10:22:49;2.90;;;1.30;;
23302;SDS011;11820;48.738;9.092;2023-12-20T10:25:18;4.83;;;1.10;;
23302;SDS011;11820;48.738;9.092;2023-12-20T10:27:44;5.87;;;1.77;;
23302;SDS011;11820;48.738;9.092;2023-12-20T10:30:10;7.17;;;1.50;;
23302;SDS011;11820;48.738;9.092;2023-12-20T10:32:35;6.27;;;1.30;;
23302;SDS011;11820;48.738;9.092;2023-12-20T10:35:01;1.90;;;1.17;;
23302;SDS011;11820;48.738;9.092;2023-12-20T10:37:27;4.77;;;1.37;;
23302;SDS011;11820;48.738;9.092;2023-12-20T10:39:53;1.80;;;1.00;;
23302;SDS011;11820;48.738;9.092;2023-12-20T10:42:22;2.17;;;1.20;;
23302;SDS011;11820;48.738;9.092;2023-12-20T10:44:51;3.30;;;1.50;;
23302;SDS011;11820;48.738;9.092;2023-12-20T10:47:18;3.43;;;1.27;;
23302;SDS011;11820;48.738;9.092;2023-12-20T10:49:44;3.03;;;1.07;;
23302;SDS011;11820;48.738;9.092;2023-12-20T10:52:11;3.33;;;1.50;;
23302;SDS011;11820;48.738;9.092;2023-12-20T10:54:37;2.70;;;1.30;;
23302;SDS011;11820;48.738;9.092;2023-12-20T10:57:06;4.63;;;1.30;;
23302;SDS011;11820;48.738;9.092;2023-12-20T10:59:33;5.37;;;1.83;;
23302;SDS011;11820;48.738;9.092;2023-12-20T11:02:01;5.33;;;1.20;;
23302;SDS011;11820;48.738;9.092;2023-12-20T11:04:31;5.63;;;1.27;;
23302;SDS011;11820;48.738;9.092;2023-12-20T11:07:21;5.23;;;1.07;;
23302;SDS011;11820;48.738;9.092;2023-12-20T11:09:55;3.97;;;1.07;;
23302;SDS011;11820;48.738;9.092;2023-12-20T11:15:35;4.60;;;1.40;;
23302;SDS011;11820;48.738;9.092;2023-12-20T11:18:01;4.23;;;1.63;;
23302;SDS011;11820;48.738;9.092;2023-12-20T11:20:40;4.80;;;1.30;;
23302;SDS011;11820;48.738;9.092;2023-12-20T11:23:06;5.23;;;1.30;;
23302;SDS011;11820;48.738;9.092;2023-12-20T11:25:50;4.43;;;1.20;;
23302;SDS011;11820;48.738;9.092;2023-12-20T11:28:20;4.13;;;1.40;;
23302;SDS011;11820;48.738;9.092;2023-12-20T11:30:47;2.13;;;1.00;;
23302;SDS011;11820;48.738;9.092;2023-12-20T11:33:14;3.70;;;1.13;;
23302;SDS011;11820;48.738;9.092;2023-12-20T11:35:41;3.23;;;1.13;;
23302;SDS011;11820;48.738;9.092;2023-12-20T11:38:10;3.13;;;1.23;;
23302;SDS011;11820;48.738;9.092;2023-12-20T11:40:36;5.80;;;1.43;;
23302;SDS011;11820;48.738;9.092;2023-12-20T11:43:02;5.77;;;1.20;;
23302;SDS011;11820;48.738;9.092;2023-12-20T11:45:28;5.80;;;1.47;;
23302;SDS011;11820;48.738;9.092;2023-12-20T11:47:53;1.83;;;1.20;;
23302;SDS011;11820;48.738;9.092;2023-12-20T11:50:20;4.30;;;1.30;;
23302;SDS011;11820;48.738;9.092;2023-12-20T11:52:46;4.30;;;1.20;;
23302;SDS011;11820;48.738;9.092;2023-12-20T11:55:11;8.83;;;1.50;;
23302;SDS011;11820;48.738;9.092;2023-12-20T11:57:37;6.87;;;1.90;;
23302;SDS011;11820;48.738;9.092;2023-12-20T12:00:03;4.40;;;1.00;;
23302;SDS011;11820;48.738;9.092;2023-12-20T12:02:30;4.50;;;1.20;;
23302;SDS011;11820;48.738;9.092;2023-12-20T12:04:56;7.47;;;1.40;;
23302;SDS011;11820;48.738;9.092;2023-12-20T12:07:23;9.17;;;1.40;;
23302;SDS011;11820;48.738;9.092;2023-12-20T12:09:49;4.70;;;1.30;;
23302;SDS011;11820;48.738;9.092;2023-12-20T12:12:14;5.50;;;1.40;;
23302;SDS011;11820;48.738;9.092;2023-12-20T12:14:40;5.77;;;1.63;;
23302;SDS011;11820;48.738;9.092;2023-12-20T12:17:12;8.97;;;1.87;;
23302;SDS011;11820;48.738;9.092;2023-12-20T12:19:38;4.23;;;1.73;;
23302;SDS011;11820;48.738;9.092;2023-12-20T12:22:05;1.80;;;1.20;;
23302;SDS011;11820;48.738;9.092;2023-12-20T12:24:36;4.60;;;1.10;;
23302;SDS011;11820;48.738;9.092;2023-12-20T12:27:02;3.37;;;1.07;;
23302;SDS011;11820;48.738;9.092;2023-12-20T12:29:28;3.77;;;1.20;;
23302;SDS011;11820;48.738;9.092;2023-12-20T12:31:54;5.30;;;1.27;;
23302;SDS011;11820;48.738;9.092;2023-12-20T12:34:20;5.53;;;1.50;;
23302;SDS011;11820;48.738;9.092;2023-12-20T12:36:45;6.47;;;1.13;;
23302;SDS011;11820;48.738;9.092;2023-12-20T12:39:14;4.73;;;1.40;;
23302;SDS011;11820;48.738;9.092;2023-12-20T12:41:43;7.97;;;1.73;;
23302;SDS011;11820;48.738;9.092;2023-12-20T12:44:08;3.87;;;0.97;;
23302;SDS011;11820;48.738;9.092;2023-12-20T12:46:34;3.00;;;1.27;;
23302;SDS011;11820;48.738;9.092;2023-12-20T12:48:59;6.40;;;1.17;;
23302;SDS011;11820;48.738;9.092;2023-12-20T12:51:25;6.23;;;1.30;;
23302;SDS011;11820;48.738;9.092;2023-12-20T12:53:50;5.20;;;1.47;;
23302;SDS011;11820;48.738;9.092;2023-12-20T12:56:16;2.90;;;0.90;;
23302;SDS011;11820;48.738;9.092;2023-12-20T12:58:42;4.67;;;1.10;;
23302;SDS011;11820;48.738;9.092;2023-12-20T13:01:07;2.50;;;0.90;;
23302;SDS011;11820;48.738;9.092;2023-12-20T13:03:33;3.03;;;1.67;;
23302;SDS011;11820;48.738;9.092;2023-12-20T13:05:59;4.47;;;1.20;;
23302;SDS011;11820;48.738;9.092;2023-12-20T13:08:24;3.90;;;1.37;;
23302;SDS011;11820;48.738;9.092;2023-12-20T13:10:50;3.73;;;1.30;;
23302;SDS011;11820;48.738;9.092;2023-12-20T13:13:15;2.67;;;1.10;;
23302;SDS011;11820;48.738;9.092;2023-12-20T13:15:40;3.80;;;1.40;;
23302;SDS011;11820;48.738;9.092;2023-12-20T13:18:06;5.70;;;1.20;;
23302;SDS011;11820;48.738;9.092;2023-12-20T13:20:31;3.73;;;1.20;;
23302;SDS011;11820;48.738;9.092;2023-12-20T13:22:58;4.97;;;1.40;;
23302;SDS011;11820;48.738;9.092;2023-12-20T13:25:23;5.33;;;1.87;;
23302;SDS011;11820;48.738;9.092;2023-12-20T13:27:49;4.57;;;1.30;;
23302;SDS011;11820;48.738;9.092;2023-12-20T13:30:16;4.97;;;1.20;;
23302;SDS011;11820;48.738;9.092;2023-12-20T13:32:42;4.40;;;1.30;;
23302;SDS011;11820;48.738;9.092;2023-12-20T13:35:07;5.87;;;1.23;;
23302;SDS011;11820;48.738;9.092;2023-12-20T13:37:33;1.87;;;0.90;;
23302;SDS011;11820;48.738;9.092;2023-12-20T13:39:59;2.70;;;1.10;;
23302;SDS011;11820;48.738;9.092;2023-12-20T13:42:25;4.17;;;1.30;;
23302;SDS011;11820;48.738;9.092;2023-12-20T13:44:52;5.57;;;1.23;;
23302;SDS011;11820;48.738;9.092;2023-12-20T13:47:17;3.60;;;1.40;;
23302;SDS011;11820;48.738;9.092;2023-12-20T13:49:44;4.13;;;1.00;;
23302;SDS011;11820;48.738;9.092;2023-12-20T13:52:10;3.37;;;1.10;;
23302;SDS011;11820;48.738;9.092;2023-12-20T13:54:36;4.40;;;1.20;;
23302;SDS011;11820;48.738;9.092;2023-12-20T13:57:02;2.97;;;0.80;;
23302;SDS011;11820;48.738;9.092;2023-12-20T13:59:28;3.63;;;1.10;;
23302;SDS011;11820;48.738;9.092;2023-12-20T14:01:53;3.17;;;0.93;;
23302;SDS011;11820;48.738;9.092;2023-12-20T14:04:19;4.37;;;1.37;;
23302;SDS011;11820;48.738;9.092;2023-12-20T14:06:45;3.77;;;1.10;;
23302;SDS011;11820;48.738;9.092;2023-12-20T14:09:10;4.87;;;1.20;;
23302;SDS011;11820;48.738;9.092;2023-12-20T14:11:36;3.50;;;1.00;;
23302;SDS011;11820;48.738;9.092;2023-12-20T14:14:06;9.83;;;1.30;;
23302;SDS011;11820;48.738;9.092;2023-12-20T14:16:32;3.93;;;1.07;;
23302;SDS011;11820;48.738;9.092;2023-12-20T14:18:58;5.73;;;1.00;;
23302;SDS011;11820;48.738;9.092;2023-12-20T14:21:23;5.40;;;1.17;;
23302;SDS011;11820;48.738;9.092;2023-12-20T14:23:49;4.90;;;1.50;;
23302;SDS011;11820;48.738;9.092;2023-12-20T14:26:14;4.93;;;1.20;;
23302;SDS011;11820;48.738;9.092;2023-12-20T14:28:43;3.97;;;1.10;;
23302;SDS011;11820;48.738;9.092;2023-12-20T14:31:08;3.67;;;1.20;;
23302;SDS011;11820;48.738;9.092;2023-12-20T14:33:35;2.03;;;0.87;;
23302;SDS011;11820;48.738;9.092;2023-12-20T14:36:00;3.63;;;1.10;;
23302;SDS011;11820;48.738;9.092;2023-12-20T14:38:26;3.13;;;1.20;;
23302;SDS011;11820;48.738;9.092;2023-12-20T14:40:52;2.37;;;1.00;;
23302;SDS011;11820;48.738;9.092;2023-12-20T14:43:18;5.10;;;1.70;;
23302;SDS011;11820;48.738;9.092;2023-12-20T14:45:43;4.83;;;1.13;;